• Join FlightAware (Why Join?)
  • Login
  • US Flag 
09:28PM EDT


 

Airport Tracker/Info


-or-


 

Live Flight TrackerFlight Track Log ✈ DAL268 ✈ 06-May-2013 ✈ KJFK - LLBG / TLV

Flight Track Log - Related Links

Times and Time Zones

All times are in EDT time to prevent confusion due to time zone crossing. See the DAL268 flight status page for this flight to view local times or setup timezone preferences in your user account.

Time Position Orientation Groundspeed Altitude Reporting Facility
EDT Latitude Longitude Course Direction KTS MPH feet Rate Location/Type
11:34PM 40.6360 -73.7800 27° Northeast 173 199  Level FlightAware
11:34PM 40.6500 -73.7690 31° Northeast 169 194 600 1,800 Climbing FlightAware
11:35PM 40.6566 -73.7599 46° Northeast 172 198 900 1,200 Climbing FlightAware ADS-B
11:35PM 40.6610 -73.7280 80° East 196 226 1,400 960 Climbing FlightAware
11:35PM 40.6620 -73.6970 88° East 224 258 1,800 1,020 Climbing FlightAware
11:36PM 40.6600 -73.6770 98° East 237 273 2,100 960 Climbing FlightAware
11:36PM 40.6530 -73.6550 113° Southeast 254 292 2,300 1,440 Climbing FlightAware
11:36PM 40.6340 -73.6140 121° Southeast 273 314 3,200 2,040 Climbing FlightAware
11:37PM 40.6170 -73.5760 121° Southeast 282 325 4,200 2,520 Climbing FlightAware
11:37PM 40.5986 -73.5306 118° Southeast 289 333 5,500 2,760 Climbing FlightAware ADS-B
11:38PM 40.5841 -73.4940 118° Southeast 292 336 6,600 3,000 Climbing FlightAware ADS-B
11:38PM 40.5752 -73.4708 117° Southeast 288 331 7,400 3,000 Climbing FlightAware ADS-B
11:38PM 40.5716 -73.4595 113° Southeast 289 333 7,700 2,700 Climbing FlightAware ADS-B
11:38PM 40.5695 -73.4519 110° East 291 335 7,900 2,100 Climbing FlightAware ADS-B
11:38PM 40.5639 -73.4252 105° East 298 343 8,400 1,920 Climbing FlightAware ADS-B
11:39PM 40.5577 -73.3984 107° East 306 352 8,900 2,280 Climbing FlightAware ADS-B
11:39PM 40.5515 -73.3704 106° East 306 352 9,600 2,040 Climbing FlightAware ADS-B
11:39PM 40.5393 -73.3145 106° East 326 375 10,500 1,680 Climbing FlightAware ADS-B
11:40PM 40.5333 -73.2841 105° East 337 388 10,900 1,740 Climbing FlightAware ADS-B
11:40PM 40.5304 -73.2610 99° East 342 394 11,300 1,860 Climbing FlightAware ADS-B
11:40PM 40.5301 -73.2452 91° East 345 397 11,500 2,280 Climbing FlightAware ADS-B
11:40PM 40.5319 -73.2229 84° East 348 400 12,000 2,100 Climbing FlightAware ADS-B
11:40PM 40.5348 -73.2088 75° East 354 407 12,100 1,140 Climbing FlightAware ADS-B
11:41PM 40.5457 -73.1815 62° Northeast 366 421 12,400 1,260 Climbing FlightAware ADS-B
11:41PM 40.5688 -73.1396 54° Northeast 384 442 12,900 1,320 Climbing FlightAware ADS-B
11:41PM 40.5930 -73.1007 51° Northeast 398 458 13,400 1,560 Climbing FlightAware ADS-B
11:42PM 40.6249 -73.0428 54° Northeast 412 474 14,200 2,100 Climbing FlightAware ADS-B
11:42PM 40.6592 -72.9735 57° Northeast 412 474 15,600 2,040 Climbing FlightAware ADS-B
11:43PM 40.6921 -72.9020 59° Northeast 424 488 16,500 1,860 Climbing FlightAware ADS-B
11:43PM 40.7245 -72.8317 59° Northeast 428 493 17,600 1,920 Climbing FlightAware ADS-B
11:44PM 40.7576 -72.7619 58° Northeast 437 503 18,500 1,740 Climbing FlightAware ADS-B
11:44PM 40.7908 -72.6917 58° Northeast 443 510 19,400 1,740 Climbing FlightAware ADS-B
11:45PM 40.8238 -72.6205 58° Northeast 446 513 20,300 1,620 Climbing FlightAware ADS-B
11:45PM 40.8574 -72.5481 58° Northeast 453 521 21,100 1,440 Climbing FlightAware ADS-B
11:46PM 40.8918 -72.4748 58° Northeast 459 528 21,800 1,380 Climbing FlightAware ADS-B
11:47PM 40.9283 -72.3960 58° Northeast 466 536 22,600 1,440 Climbing FlightAware ADS-B
11:47PM 40.9619 -72.3219 59° Northeast 470 541 23,300 1,320 Climbing FlightAware ADS-B
11:48PM 41.0025 -72.2340 59° Northeast 475 547 24,100 1,200 Climbing FlightAware ADS-B
11:48PM 41.0400 -72.1510 59° Northeast 480 552 24,800 1,140 Climbing FlightAware
11:49PM 41.1000 -72.0220 58° Northeast 490 564 25,800 1,140 Climbing FlightAware
11:50PM 41.1580 -71.8950 59° Northeast 497 572 26,700 960 Climbing FlightAware
11:51PM 41.2070 -71.7870 59° Northeast 502 578 27,400 1,080 Climbing FlightAware
11:51PM 41.2640 -71.6600 59° Northeast 504 580 28,400 1,260 Climbing FlightAware
11:52PM 41.3130 -71.5520 59° Northeast 503 579 29,200 1,200 Climbing FlightAware
11:53PM 41.3670 -71.4330 59° Northeast 502 578 30,100 1,200 Climbing FlightAware
11:53PM 41.4060 -71.3460 59° Northeast 501 577 30,800 720 Climbing FlightAware
11:54PM 41.4620 -71.2190 59° Northeast 501 577 31,100 180 Climbing FlightAware
11:55PM 41.5110 -71.1090 59° Northeast 500 575 31,100  Level FlightAware
11:55PM 41.5570 -71.0060 59° Northeast 500 575 31,100  Level FlightAware
11:56PM 41.6130 -70.8780 60° Northeast 500 575 31,100  Level FlightAware
11:57PM 41.6500 -70.7950 59° Northeast 500 575 31,100  Level FlightAware
11:58PM 41.7130 -70.6520 59° Northeast 501 577 31,100  Level FlightAware
11:59PM 41.7670 -70.5260 60° Northeast 501 577 31,100  Level FlightAware
11:59PM 41.8170 -70.4120 59° Northeast 501 577 31,100  Level FlightAware
12:00AM 41.8820 -70.2640 59° Northeast 501 577 31,100  Level FlightAware
12:01AM 41.9400 -70.1280 60° Northeast 496 571 31,100  Level FlightAware
12:02AM 41.9870 -70.0190 60° Northeast 496 571 31,100  Level FlightAware
12:02AM 42.0320 -69.9150 60° Northeast 500 575 31,100  Level FlightAware
12:03AM 42.0850 -69.7890 60° Northeast 496 571 31,100  Level FlightAware
12:04AM 42.1240 -69.6970 60° Northeast 497 572 31,100  Level FlightAware
12:04AM 42.1780 -69.5720 60° Northeast 496 571 31,100  Level FlightAware
12:05AM 42.2160 -69.4840 60° Northeast 496 571 31,100  Level FlightAware
12:06AM 42.2750 -69.3440 60° Northeast 497 572 31,100  Level FlightAware
12:07AM 42.3270 -69.2190 61° Northeast 496 571 31,100  Level FlightAware
12:07AM 42.3720 -69.1100 61° Northeast 495 570 31,100  Level FlightAware
12:08AM 42.4170 -69.0040 60° Northeast 493 567 31,100  Level FlightAware
12:09AM 42.4680 -68.8810 61° Northeast 493 567 31,100  Level FlightAware
12:09AM 42.5120 -68.7750 61° Northeast 493 567 31,100  Level FlightAware
12:10AM 42.5620 -68.6530 61° Northeast 493 567 31,100  Level FlightAware
12:11AM 42.6070 -68.5460 60° Northeast 493 567 31,100  Level FlightAware
12:11AM 42.6450 -68.4530 61° Northeast 494 568 31,100  Level FlightAware
12:12AM 42.6910 -68.3390 61° Northeast 495 570 31,100  Level FlightAware
12:13AM 42.7390 -68.2270 60° Northeast 495 570 31,100  Level FlightAware
12:13AM 42.7870 -68.1060 62° Northeast 495 570 31,100  Level FlightAware
12:14AM 42.8240 -68.0130 61° Northeast 495 570 31,100  Level FlightAware
12:15AM 42.8870 -67.8560 61° Northeast 490 564 31,100  Level FlightAware
12:16AM 42.9290 -67.7500 62° Northeast 490 564 31,100  Level FlightAware
12:17AM 42.9910 -67.5970 61° Northeast 488 562 31,100  Level FlightAware
12:17AM 43.0330 -67.4910 62° Northeast 487 560 31,100  Level FlightAware
12:18AM 43.0810 -67.3720 61° Northeast 486 559 31,100  Level FlightAware
12:19AM 43.1270 -67.2550 62° Northeast 485 558 31,100  Level FlightAware
12:19AM 43.1710 -67.1430 62° Northeast 484 557 31,100  Level FlightAware
12:20AM 43.2170 -67.0260 62° Northeast 485 558 31,100  Level FlightAware
12:21AM 43.2650 -66.9050 61° Northeast 485 558 31,100  Level FlightAware
12:21AM 43.3080 -66.7940 62° Northeast 484 557 31,100  Level FlightAware
12:22AM 43.3490 -66.6880 62° Northeast 484 557 31,100  Level FlightAware
12:23AM 43.3990 -66.5600 62° Northeast 484 557 31,100  Level FlightAware
12:24AM 43.4390 -66.4550 62° Northeast 486 559 31,100  Level FlightAware
12:24AM 43.4860 -66.3330 62° Northeast 490 564 31,100  Level FlightAware
12:25AM 43.5290 -66.2210 62° Northeast 492 566 31,100  Level FlightAware
12:26AM 43.5720 -66.1090 62° Northeast 494 568 31,100  Level FlightAware
12:26AM 43.6200 -65.9810 63° Northeast 497 572 31,100  Level FlightAware
12:27AM 43.6630 -65.8690 62° Northeast 497 572 31,100  Level FlightAware
12:28AM 43.7110 -65.7420 62° Northeast 497 572 31,100  Level FlightAware
12:28AM 43.7540 -65.6260 63° Northeast 499 574 31,100  Level FlightAware
12:29AM 43.7960 -65.5140 63° Northeast 500 575 31,100  Level FlightAware
12:30AM 43.8440 -65.3830 63° Northeast 502 578 31,100  Level FlightAware
12:31AM 43.8860 -65.2700 63° Northeast 504 580 31,100  Level FlightAware
12:31AM 43.9340 -65.1380 63° Northeast 508 585 31,100  Level FlightAware
12:32AM 43.9770 -65.0210 63° Northeast 509 586 31,100  Level FlightAware
12:33AM 44.0190 -64.9070 63° Northeast 511 588 31,100  Level FlightAware
12:33AM 44.0670 -64.7740 63° Northeast 513 590 31,100  Level FlightAware
12:34AM 44.1070 -64.6630 63° Northeast 513 590 31,100  Level FlightAware
12:35AM 44.1550 -64.5300 63° Northeast 515 593 31,100  Level FlightAware
12:35AM 44.2010 -64.4020 63° Northeast 517 595 31,100  Level FlightAware
12:36AM 44.2420 -64.2870 64° Northeast 517 595 31,100  Level FlightAware
12:37AM 44.2890 -64.1520 64° Northeast 520 598 31,100  Level FlightAware
12:37AM 44.3310 -64.0350 63° Northeast 521 600 31,100  Level FlightAware
12:41AM 44.5530 -63.3960 64° Northeast 524 603 31,100  Level FlightAware
12:42AM 44.5950 -63.2710 65° Northeast 520 598 31,100  Level FlightAware
12:42AM 44.6380 -63.1450 64° Northeast 516 594 31,100  Level FlightAware
12:43AM 44.6910 -62.9880 65° Northeast 514 592 31,100  Level FlightAware
12:44AM 44.7280 -62.8810 64° Northeast 513 590 31,100  Level FlightAware
12:45AM 44.7930 -62.6850 65° Northeast 513 590 31,100  Level FlightAware
12:46AM 44.8350 -62.5560 65° Northeast 513 590 31,100  Level FlightAware
12:46AM 44.8610 -62.4780 65° Northeast 513 590 31,100  Level FlightAware
12:47AM 44.9040 -62.3490 65° Northeast 513 590 31,100  Level FlightAware
12:48AM 44.9380 -62.2460 65° Northeast 513 590 31,100  Level FlightAware
12:48AM 44.9720 -62.1430 65° Northeast 513 590 31,100  Level FlightAware
12:49AM 45.0060 -62.0390 65° Northeast 513 590 31,100  Level FlightAware
12:50AM 45.0490 -61.9100 65° Northeast 513 590 31,100  Level FlightAware
12:51AM 45.0830 -61.8060 65° Northeast 513 590 31,100  Level FlightAware
12:51AM 45.1170 -61.7030 65° Northeast 513 590 31,100  Level FlightAware
12:52AM 45.1510 -61.5990 65° Northeast 513 590 31,100  Level FlightAware
12:53AM 45.1850 -61.4950 65° Northeast 513 590 31,100  Level FlightAware
12:53AM 45.2280 -61.3660 65° Northeast 513 590 31,100  Level FlightAware
12:54AM 45.3330 -61.0060 67° East 523 602 31,100  Level FlightAware
12:55AM 45.3790 -60.8540 67° East 527 606 31,100  Level FlightAware
12:56AM 45.4190 -60.7240 66° East 528 608 31,100  Level FlightAware
12:56AM 45.4580 -60.5980 66° East 529 609 31,100  Level FlightAware
12:57AM 45.5010 -60.4570 66° East 529 609 31,100  Level FlightAware
12:58AM 45.5400 -60.3280 67° East 529 609 31,100  Level FlightAware
12:58AM 45.5840 -60.1790 67° East 529 609 31,100  Level FlightAware
12:59AM 45.6220 -60.0530 67° East 528 608 31,100 120 Level FlightAware
01:00AM 45.6600 -59.9240 67° East 524 603 31,300 480 Climbing FlightAware
01:00AM 45.7020 -59.7830 67° East 524 603 31,800 660 Climbing FlightAware
01:01AM 45.7400 -59.6550 67° East 520 598 32,300 660 Climbing FlightAware
01:02AM 45.7760 -59.5300 68° East 515 593 32,700 480 Climbing FlightAware
01:03AM 45.8180 -59.3850 67° East 515 593 33,000 240 Climbing FlightAware
01:03AM 45.8550 -59.2580 67° East 516 594 33,100 60 Climbing FlightAware
01:04AM 45.8950 -59.1200 67° East 514 592 33,100  Level FlightAware
01:05AM 45.9300 -58.9950 68° East 513 590 33,100  Level FlightAware
01:05AM 45.9670 -58.8660 68° East 512 589 33,100  Level FlightAware
01:06AM 46.0080 -58.7200 68° East 514 592 33,100  Level FlightAware
01:07AM 46.0430 -58.5960 68° East 516 594 33,100  Level FlightAware
01:07AM 46.0830 -58.4530 68° East 518 596 33,100  Level FlightAware
01:08AM 46.1190 -58.3240 68° East 520 598 33,100  Level FlightAware
01:09AM 46.1780 -58.1080 68° East 520 598 33,100  Level FlightAware
01:10AM 46.2090 -57.9990 68° East 520 598 33,100  Level FlightAware
01:11AM 46.2550 -57.8280 69° East 520 598 33,100  Level FlightAware
01:11AM 46.2890 -57.7040 68° East 521 600 33,100  Level FlightAware
01:12AM 46.3190 -57.5940 68° East 521 600 33,100  Level FlightAware
01:13AM 46.3500 -57.4840 68° East 521 600 33,100  Level FlightAware
01:13AM 46.4000 -57.2860 70° East 522 601 33,100  Level FlightAware
01:14AM 46.4350 -57.1520 69° East 522 601 33,100  Level FlightAware
01:15AM 46.4650 -57.0410 69° East 522 601 33,100  Level FlightAware
01:16AM 46.5050 -56.8690 71° East 524 603 33,100  Level FlightAware
01:16AM 46.5400 -56.7320 70° East 524 603 33,100  Level FlightAware
01:17AM 46.5730 -56.5990 70° East 524 603 33,100  Level FlightAware
01:18AM 46.6090 -56.4540 70° East 524 603 33,100  Level FlightAware
01:18AM 46.6420 -56.3180 70° East 523 602 33,100  Level FlightAware
01:19AM 46.6760 -56.1820 70° East 523 602 33,100  Level FlightAware
01:20AM 46.7110 -56.0380 70° East 523 602 33,100  Level FlightAware
01:20AM 46.7330 -55.9450 71° East 523 602 33,100 60 Level FlightAware
01:21AM 46.7670 -55.8030 71° East 523 602 33,200 240 Climbing FlightAware
01:22AM 46.8030 -55.6530 71° East 521 600 33,500 420 Climbing FlightAware
01:22AM 46.8340 -55.5220 71° East 525 604 33,800 420 Climbing FlightAware
01:23AM 46.8660 -55.3860 71° East 529 609 34,100 180 Climbing FlightAware
01:24AM 46.9020 -55.2330 71° East 527 606 34,100  Level FlightAware
01:24AM 46.9340 -55.0990 71° East 525 604 34,100  Level FlightAware
01:25AM 46.9690 -54.9490 71° East 525 604 34,100  Level FlightAware
01:26AM 46.9990 -54.8180 71° East 525 604 34,100  Level FlightAware
01:27AM 47.0300 -54.6810 72° East 524 603 34,100  Level FlightAware
01:27AM 47.0660 -54.5260 71° East 524 603 34,100  Level FlightAware
01:28AM 47.0960 -54.3930 72° East 524 603 34,100  Level FlightAware
01:29AM 47.1270 -54.2550 72° East 523 602 34,100  Level FlightAware
01:29AM 47.1600 -54.1060 72° East 523 602 34,100  Level FlightAware
01:30AM 47.1930 -53.9560 72° East 522 601 34,100  Level FlightAware
01:31AM 47.2240 -53.8180 72° East 523 602 34,100  Level FlightAware
01:31AM 47.2530 -53.6830 72° East 523 602 34,100  Level FlightAware
01:32AM 47.2870 -53.5290 72° East 523 602 34,100  Level FlightAware
01:33AM 47.3160 -53.3950 72° East 524 603 34,100  Level FlightAware
01:34AM 47.3460 -53.2570 72° East 526 605 34,100  Level FlightAware
01:34AM 47.3790 -53.1050 72° East 527 606 34,100  Level FlightAware
01:35AM 47.4070 -52.9680 73° East 528 608 34,100  Level FlightAware
01:36AM 47.4410 -52.8100 72° East 528 608 34,100  Level FlightAware
01:36AM 47.4690 -52.6760 73° East 529 609 34,100  Level FlightAware
01:37AM 47.5010 -52.5210 73° East 530 610 34,100  Level FlightAware
01:38AM 47.5310 -52.3770 73° East 532 612 34,100  Level FlightAware
01:38AM 47.5590 -52.2390 73° East 532 612 34,100  Level FlightAware
01:39AM 47.5880 -52.0990 73° East 533 613 34,100  Level FlightAware
01:40AM 47.6200 -51.9430 73° East 535 616 34,100  Level FlightAware
01:41AM 47.6510 -51.7880 73° East 537 618 34,100  Level FlightAware
01:41AM 47.6800 -51.6430 73° East 538 619 34,100  Level FlightAware
01:42AM 47.7030 -51.5260 74° East 539 620 34,100  Level FlightAware
01:43AM 47.7390 -51.3430 74° East 539 620 34,100  Level FlightAware
01:43AM 47.7670 -51.2030 73° East 543 625 34,100  Level FlightAware
01:44AM 47.7950 -51.0580 74° East 545 627 34,100  Level FlightAware
01:45AM 47.8270 -50.8930 74° East 546 628 34,100  Level FlightAware
01:46AM 47.8590 -50.7210 74° East 546 628 34,100  Level FlightAware
01:46AM 47.8940 -50.5410 74° East 547 629 34,100  Level FlightAware
01:47AM 47.9170 -50.4180 74° East 547 629 34,100  Level FlightAware
01:48AM 47.9410 -50.2950 74° East 547 629 34,100  Level FlightAware
01:48AM 47.9650 -50.1710 74° East 547 629 34,100  Level FlightAware
01:49AM 47.9880 -50.0480 74° East 547 629 34,100  Level FlightAware
01:50AM 48.0120 -49.9240 74° East 547 629 34,100 -120 Level FlightAware
01:51AM 48.0000 -50.0000 78° East 524 603 34,000  Descending ETMS Enhanced Traffic Management System
01:51AM 48.0420 -49.7690 74° East 547 629 34,100 120 Climbing FlightAware
01:51AM 48.0650 -49.6460 74° East 547 629 34,100  Level FlightAware
01:51AM 48.0500 -49.4000 78° East 550 633 34,100  Level Gander Center
01:52AM 48.0890 -49.5220 74° East 547 629 34,100  Level FlightAware
01:52AM 48.0833 -49.2000 76° East 540 621 34,100  Level Gander Center
01:53AM 48.1130 -49.3980 74° East 547 629 34,100  Level FlightAware
01:53AM 48.1370 -49.2740 74° East 547 629 34,100  Level FlightAware
01:53AM 48.1167 -48.9833 77° East 540 621 34,100  Level Gander Center
01:54AM 48.1660 -49.1190 74° East 547 629 34,100  Level FlightAware
01:54AM 48.1500 -48.7500 78° East 540 621 34,100  Level Gander Center
01:55AM 48.1900 -48.9950 74° East 547 629 34,100  Level FlightAware
01:55AM 48.1833 -48.5333 77° East 530 610 34,100  Level Gander Center
01:55AM 48.2140 -48.8710 74° East 547 629 34,100  Level FlightAware
01:56AM 48.2000 -48.3333 83° East 530 610 34,100  Level Gander Center
01:57AM 48.2333 -48.1167 77° East 530 610 34,100  Level Gander Center
01:58AM 48.2667 -47.8833 78° East 530 610 34,100  Level Gander Center
01:59AM 48.3000 -47.6667 77° East 530 610 34,100  Level Gander Center
02:02AM 48.3500 -47.1500 82° East 520 598 34,100 -60 Level Gander Center
02:04AM 48.3938 -46.7904 79° East  Level FlightAware Approximate
02:11AM 48.5636 -45.2887 80° East  Level FlightAware Approximate
02:12AM 48.5863 -45.0734 81° East  Level FlightAware Approximate
02:13AM 48.6086 -44.8578 81° East  Level FlightAware Approximate
02:14AM 48.6305 -44.6421 81° East  Level FlightAware Approximate
02:15AM 48.6519 -44.4262 81° East  Level FlightAware Approximate
02:16AM 48.6730 -44.2101 82° East  Level FlightAware Approximate
02:17AM 48.6936 -43.9939 82° East  Level FlightAware Approximate
02:18AM 48.7139 -43.7774 82° East  Level FlightAware Approximate
02:19AM 48.7337 -43.5608 82° East  Level FlightAware Approximate
02:20AM 48.7532 -43.3441 82° East  Level FlightAware Approximate
02:21AM 48.7722 -43.1271 82° East  Level FlightAware Approximate
02:22AM 48.7908 -42.9100 83° East  Level FlightAware Approximate
02:23AM 48.8090 -42.6927 83° East  Level FlightAware Approximate
02:24AM 48.8268 -42.4753 83° East  Level FlightAware Approximate
02:25AM 48.8442 -42.2577 83° East  Level FlightAware Approximate
02:26AM 48.8612 -42.0400 83° East  Level FlightAware Approximate
02:27AM 48.8778 -41.8221 83° East  Level FlightAware Approximate
02:28AM 48.8940 -41.6041 83° East  Level FlightAware Approximate
02:29AM 48.9097 -41.3860 84° East  Level FlightAware Approximate
02:30AM 48.9251 -41.1677 84° East  Level FlightAware Approximate
02:31AM 48.9400 -40.9493 84° East  Level FlightAware Approximate
02:32AM 48.9545 -40.7307 84° East  Level FlightAware Approximate
02:33AM 48.9686 -40.5120 84° East  Level FlightAware Approximate
02:34AM 48.9823 -40.2932 84° East  Level FlightAware Approximate
02:35AM 48.9956 -40.0743 85° East  Level FlightAware Approximate
02:36AM 49.0206 -39.8581 77° East  Level FlightAware Approximate
02:37AM 49.0514 -39.6432 78° East  Level FlightAware Approximate
02:37AM 49.0000 -40.0000 77° East 502 578 34,000  Level ETMS Enhanced Traffic Management System
02:38AM 49.0819 -39.4280 78° East  Level FlightAware Approximate
02:39AM 49.1113 -39.2175 78° East  Level FlightAware Approximate
02:40AM 49.1402 -39.0068 78° East  Level FlightAware Approximate
02:41AM 49.1688 -38.7959 78° East  Level FlightAware Approximate
02:42AM 49.1970 -38.5847 78° East  Level FlightAware Approximate
02:43AM 49.2031 -38.5389 79° East 502 578 34,000  Level FlightAware Transoceanic
02:44AM 49.2306 -38.3292 79° East 502 578 34,000  Level FlightAware Transoceanic
02:45AM 49.2577 -38.1193 79° East 502 578 34,000  Level FlightAware Transoceanic
02:46AM 49.2845 -37.9092 79° East 502 578 34,000  Level FlightAware Transoceanic
02:47AM 49.3108 -37.6988 79° East 502 578 34,000  Level FlightAware Transoceanic
02:48AM 49.3368 -37.4882 79° East 502 578 34,000  Level FlightAware Transoceanic
02:49AM 49.3624 -37.2774 80° East 502 578 34,000  Level FlightAware Transoceanic
02:50AM 49.3876 -37.0664 80° East 502 578 34,000  Level FlightAware Transoceanic
02:51AM 49.4124 -36.8551 80° East 502 578 34,000  Level FlightAware Transoceanic
02:52AM 49.4369 -36.6437 80° East 502 578 34,000  Level FlightAware Transoceanic
02:53AM 49.4609 -36.4320 80° East 502 578 34,000  Level FlightAware Transoceanic
02:54AM 49.4846 -36.2201 80° East 502 578 34,000  Level FlightAware Transoceanic
02:55AM 49.5079 -36.0080 80° East 502 578 34,000  Level FlightAware Transoceanic
02:56AM 49.5308 -35.7957 81° East 502 578 34,000  Level FlightAware Transoceanic
02:57AM 49.5533 -35.5833 81° East 502 578 34,000  Level FlightAware Transoceanic
02:58AM 49.5754 -35.3706 81° East 502 578 34,000  Level FlightAware Transoceanic
02:59AM 49.5971 -35.1577 81° East 502 578 34,000  Level FlightAware Transoceanic
03:00AM 49.6185 -34.9447 81° East 502 578 34,000  Level FlightAware Transoceanic
03:01AM 49.6394 -34.7314 81° East 502 578 34,000  Level FlightAware Transoceanic
03:02AM 49.6600 -34.5180 82° East 502 578 34,000  Level FlightAware Transoceanic
03:03AM 49.6801 -34.3044 82° East 502 578 34,000  Level FlightAware Transoceanic
03:04AM 49.6999 -34.0906 82° East 502 578 34,000  Level FlightAware Transoceanic
03:05AM 49.7192 -33.8767 82° East 502 578 34,000  Level FlightAware Transoceanic
03:06AM 49.7382 -33.6626 82° East 502 578 34,000  Level FlightAware Transoceanic
03:07AM 49.7568 -33.4483 82° East 502 578 34,000  Level FlightAware Transoceanic
03:08AM 49.7750 -33.2339 83° East 502 578 34,000  Level FlightAware Transoceanic
03:09AM 49.7928 -33.0193 83° East 502 578 34,000  Level FlightAware Transoceanic
03:10AM 49.8102 -32.8045 83° East 502 578 34,000  Level FlightAware Transoceanic
03:11AM 49.8272 -32.5896 83° East 502 578 34,000  Level FlightAware Transoceanic
03:12AM 49.8438 -32.3745 83° East 502 578 34,000  Level FlightAware Transoceanic
03:13AM 49.8600 -32.1593 83° East 502 578 34,000  Level FlightAware Transoceanic
03:14AM 49.8758 -31.9440 84° East 502 578 34,000  Level FlightAware Transoceanic
03:15AM 49.8912 -31.7285 84° East 502 578 34,000  Level FlightAware Transoceanic
03:16AM 49.9062 -31.5129 84° East 502 578 34,000  Level FlightAware Transoceanic
03:17AM 49.9208 -31.2971 84° East 502 578 34,000  Level FlightAware Transoceanic
03:18AM 49.9350 -31.0812 84° East 502 578 34,000  Level FlightAware Transoceanic
03:19AM 49.9488 -30.8652 84° East 502 578 34,000  Level FlightAware Transoceanic
03:20AM 49.9622 -30.6491 85° East 502 578 34,000  Level FlightAware Transoceanic
03:21AM 49.9752 -30.4328 85° East 502 578 34,000  Level FlightAware Transoceanic
03:22AM 49.9878 -30.2165 85° East 502 578 34,000  Level FlightAware Transoceanic
03:23AM 50.0001 -29.9982 85° East  Level FlightAware Approximate
03:24AM 50.0001 -29.9963 86° East  Level FlightAware Approximate
03:24AM 50.0000 -30.0000 86° East 513 590 34,000  Level ETMS Enhanced Traffic Management System
03:25AM 50.0090 -29.7776 86° East  Level FlightAware Approximate
03:26AM 50.0175 -29.5587 86° East  Level FlightAware Approximate
03:27AM 50.0256 -29.3398 87° East  Level FlightAware Approximate
03:28AM 50.0332 -29.1208 87° East  Level FlightAware Approximate
03:29AM 50.0404 -28.9018 87° East  Level FlightAware Approximate
03:30AM 50.0565 -28.4471 87° East 513 590 34,000  Level FlightAware Transoceanic
03:31AM 50.0628 -28.2250 88° East 513 590 34,000  Level FlightAware Transoceanic
03:32AM 50.0688 -28.0029 88° East 513 590 34,000  Level FlightAware Transoceanic
03:33AM 50.0743 -27.7806 88° East 513 590 34,000  Level FlightAware Transoceanic
03:34AM 50.0794 -27.5584 88° East 513 590 34,000  Level FlightAware Transoceanic
03:35AM 50.0841 -27.3361 88° East 513 590 34,000  Level FlightAware Transoceanic
03:36AM 50.0883 -27.1137 88° East 513 590 34,000  Level FlightAware Transoceanic
03:37AM 50.0922 -26.8913 89° East 513 590 34,000  Level FlightAware Transoceanic
03:38AM 50.0956 -26.6689 89° East 513 590 34,000  Level FlightAware Transoceanic
03:39AM 50.0985 -26.4464 89° East 513 590 34,000  Level FlightAware Transoceanic
03:40AM 50.1011 -26.2239 89° East 513 590 34,000  Level FlightAware Transoceanic
03:41AM 50.1032 -26.0014 89° East 513 590 34,000  Level FlightAware Transoceanic
03:42AM 50.1049 -25.7789 89° East 513 590 34,000  Level FlightAware Transoceanic
03:43AM 50.1062 -25.5564 90° East 513 590 34,000  Level FlightAware Transoceanic
03:44AM 50.1071 -25.3338 90° East 513 590 34,000  Level FlightAware Transoceanic
03:45AM 50.1075 -25.1113 90° East 513 590 34,000  Level FlightAware Transoceanic
03:46AM 50.1075 -24.8887 90° East 513 590 34,000  Level FlightAware Transoceanic
03:47AM 50.1071 -24.6662 90° East 513 590 34,000  Level FlightAware Transoceanic
03:48AM 50.1062 -24.4436 90° East 513 590 34,000  Level FlightAware Transoceanic
03:49AM 50.1049 -24.2211 91° East 513 590 34,000  Level FlightAware Transoceanic
03:50AM 50.1032 -23.9986 91° East 513 590 34,000  Level FlightAware Transoceanic
03:51AM 50.1011 -23.7761 91° East 513 590 34,000  Level FlightAware Transoceanic
03:52AM 50.0985 -23.5536 91° East 513 590 34,000  Level FlightAware Transoceanic
03:53AM 50.0956 -23.3311 91° East 513 590 34,000  Level FlightAware Transoceanic
03:54AM 50.0922 -23.1087 91° East 513 590 34,000  Level FlightAware Transoceanic
03:55AM 50.0883 -22.8863 92° East 513 590 34,000  Level FlightAware Transoceanic
03:56AM 50.0841 -22.6639 92° East 513 590 34,000  Level FlightAware Transoceanic
03:57AM 50.0794 -22.4416 92° East 513 590 34,000  Level FlightAware Transoceanic
03:58AM 50.0743 -22.2194 92° East 513 590 34,000  Level FlightAware Transoceanic
03:59AM 50.0688 -21.9971 92° East 513 590 34,000  Level FlightAware Transoceanic
04:00AM 50.0628 -21.7750 92° East 513 590 34,000  Level FlightAware Transoceanic
04:01AM 50.0565 -21.5529 93° East 513 590 34,000  Level FlightAware Transoceanic
04:02AM 50.0497 -21.3308 93° East 513 590 34,000  Level FlightAware Transoceanic
04:03AM 50.0424 -21.1088 93° East 513 590 34,000  Level FlightAware Transoceanic
04:04AM 50.0348 -20.8869 93° East 513 590 34,000  Level FlightAware Transoceanic
04:05AM 50.0267 -20.6651 93° East 513 590 34,000  Level FlightAware Transoceanic
04:06AM 50.0182 -20.4433 93° East 513 590 34,000  Level FlightAware Transoceanic
04:07AM 50.0093 -20.2216 94° East 513 590 34,000  Level FlightAware Transoceanic
04:08AM 50.0001 -20.0029 94° East  Level FlightAware Approximate
04:09AM 49.9908 -19.7842 94° East  Level FlightAware Approximate
04:10AM 49.9931 -19.7869 93° East  Level FlightAware Approximate
04:11AM 49.9856 -19.5684 93° East  Level FlightAware Approximate
04:12AM 49.9776 -19.3501 93° East  Level FlightAware Approximate
04:13AM 49.9693 -19.1318 93° East  Level FlightAware Approximate
04:14AM 49.9606 -18.9135 93° East  Level FlightAware Approximate
04:15AM 49.9514 -18.6954 94° East  Level FlightAware Approximate
04:16AM 49.9419 -18.4774 94° East  Level FlightAware Approximate
04:17AM 49.9319 -18.2594 94° East  Level FlightAware Approximate
04:18AM 49.9215 -18.0415 94° East  Level FlightAware Approximate
04:19AM 49.9107 -17.8237 94° East  Level FlightAware Approximate
04:20AM 49.8995 -17.6061 94° East  Level FlightAware Approximate
04:21AM 49.8879 -17.3885 95° East  Level FlightAware Approximate
04:22AM 49.8759 -17.1710 95° East  Level FlightAware Approximate
04:23AM 49.8635 -16.9537 95° East  Level FlightAware Approximate
04:24AM 49.8507 -16.7364 95° East  Level FlightAware Approximate
04:25AM 49.8375 -16.5193 95° East  Level FlightAware Approximate
04:26AM 49.8238 -16.3023 95° East  Level FlightAware Approximate
04:27AM 49.8098 -16.0854 96° East  Level FlightAware Approximate
04:28AM 49.7953 -15.8686 96° East  Level FlightAware Approximate
04:29AM 49.7805 -15.6520 96° East  Level FlightAware Approximate
04:30AM 49.7653 -15.4355 96° East  Level FlightAware Approximate
04:31AM 49.7496 -15.2192 96° East  Level FlightAware Approximate
04:32AM 49.7336 -15.0029 96° East  Level FlightAware Approximate
04:33AM 49.7168 -14.7870 97° East  Level FlightAware Approximate
04:34AM 49.6996 -14.5711 97° East  Level FlightAware Approximate
04:35AM 49.6820 -14.3554 97° East  Level FlightAware Approximate
04:36AM 49.6641 -14.1399 97° East  Level FlightAware Approximate
04:37AM 49.6457 -13.9245 97° East  Level FlightAware Approximate
04:38AM 49.6269 -13.7093 98° East  Level FlightAware Approximate
04:39AM 49.6077 -13.4942 98° East  Level FlightAware Approximate
04:40AM 49.5882 -13.2793 98° East  Level FlightAware Approximate
04:41AM 49.5682 -13.0646 98° East  Level FlightAware Approximate
04:42AM 49.5478 -12.8501 98° East  Level FlightAware Approximate
04:43AM 49.5274 -12.6357 98° East  Level FlightAware Approximate
04:44AM 49.5073 -12.4213 98° East  Level FlightAware Approximate
04:45AM 49.4868 -12.2070 98° East  Level FlightAware Approximate
04:46AM 49.4660 -11.9930 98° East  Level FlightAware Approximate
04:47AM 49.4447 -11.7791 99° East  Level FlightAware Approximate
04:48AM 49.4230 -11.5654 99° East  Level FlightAware Approximate
04:49AM 49.4010 -11.3519 99° East  Level FlightAware Approximate
04:50AM 49.3785 -11.1386 99° East  Level FlightAware Approximate
04:51AM 49.3557 -10.9255 99° East  Level FlightAware Approximate
04:52AM 49.3325 -10.7126 99° East  Level FlightAware Approximate
04:53AM 49.3088 -10.4999 100° East  Level FlightAware Approximate
04:53AM 49.3800 -9.8540 100° East 530 610 35,100  Level FlightAware
04:54AM 49.2848 -10.2874 100° East  Level FlightAware Approximate
04:54AM 49.3600 -9.7230 103° East 530 610 35,100  Level FlightAware
04:54AM 49.3410 -9.5980 103° East 530 610 35,100  Level FlightAware
04:55AM 49.3230 -9.4730 102° East 530 610 35,100  Level FlightAware
04:56AM 49.3040 -9.3490 103° East 530 610 35,100  Level FlightAware
04:57AM 49.2570 -9.0870 105° East 533 613 35,100 -1,080 Level FlightAware
04:57AM 49.2417 -8.9895 105° East 490 564 33,500  Descending FlightAware UK
04:57AM 49.2250 -8.8910 105° East 534 615 35,100  Climbing FlightAware
04:58AM 49.2237 -8.8798 105° East 490 564 33,500 -2,940 Descending FlightAware UK
04:58AM 49.2127 -8.8138 104° East 490 564 33,500 3,840 Level FlightAware UK
04:58AM 49.2000 -8.7420 104° East 535 616 35,100  Climbing FlightAware
04:58AM 49.1979 -8.7259 104° East 490 564 33,500  Descending FlightAware UK
04:59AM 49.1780 -8.6100 104° East 536 617 35,100  Climbing FlightAware
04:59AM 49.1759 -8.5938 104° East 490 564 33,500  Descending FlightAware UK
04:59AM 49.1600 -8.5050 104° East 536 617 35,100  Climbing FlightAware
05:00AM 49.1571 -8.4838 104° East 492 566 33,500 -2,700 Descending FlightAware UK
05:00AM 49.1456 -8.4178 105° East 492 566 33,500 4,320 Level FlightAware UK
05:00AM 49.1340 -8.3540 105° East 537 618 35,100  Climbing FlightAware
05:00AM 49.1304 -8.3298 105° East 492 566 33,500 -2,580 Descending FlightAware UK
05:01AM 49.1190 -8.2638 105° East 490 564 33,500 3,840 Level FlightAware UK
05:01AM 49.1070 -8.1930 105° East 536 617 35,100  Climbing FlightAware
05:01AM 49.1038 -8.1759 105° East 490 564 33,500 -2,760 Descending FlightAware UK
05:01AM 49.0874 -8.1126 112° Southeast 490 564 33,500 4,140 Level FlightAware UK
05:01AM 49.0750 -8.0490 112° Southeast 531 611 35,100  Climbing FlightAware
05:02AM 49.0643 -8.0299 112° Southeast 490 564 33,500 -2,640 Descending FlightAware UK
05:02AM 49.0461 -7.9678 114° Southeast 490 564 33,500 4,560 Level FlightAware UK
05:02AM 49.0360 -7.9140 114° Southeast 530 610 35,100  Climbing FlightAware
05:02AM 49.0273 -7.9070 114° Southeast 488 562 33,500 -2,940 Descending FlightAware UK
05:03AM 49.0080 -7.8465 116° Southeast 490 564 33,500 3,180 Level FlightAware UK
05:03AM 48.9890 -7.7670 116° Southeast 530 610 35,100  Climbing FlightAware
05:03AM 48.9755 -7.7456 116° Southeast 490 564 33,500 -2,700 Descending FlightAware UK
05:03AM 48.9562 -7.6849 116° Southeast 490 564 33,500 4,320 Level FlightAware UK
05:03AM 48.9460 -7.6290 116° Southeast 532 612 35,100  Climbing FlightAware
05:04AM 48.9306 -7.6040 116° Southeast 490 564 33,500 -2,580 Descending FlightAware UK
05:04AM 48.9114 -7.5432 116° Southeast 492 566 33,500 3,840 Level FlightAware UK
05:04AM 48.8980 -7.4790 116° Southeast 532 612 35,100  Climbing FlightAware
05:04AM 48.8860 -7.4620 116° Southeast 490 564 33,500 -2,760 Descending FlightAware UK
05:05AM 48.8668 -7.4012 116° Southeast 490 564 33,500 4,140 Level FlightAware UK
05:05AM 48.8550 -7.3410 116° Southeast 532 612 35,100  Climbing FlightAware
05:05AM 48.8413 -7.3200 116° Southeast 490 564 33,500 -2,640 Descending FlightAware UK
05:05AM 48.8222 -7.2590 115° Southeast 490 564 33,500 4,560 Level FlightAware UK
05:05AM 48.8150 -7.2130 115° Southeast 533 613 35,100  Climbing FlightAware
05:06AM 48.8031 -7.1981 115° Southeast 490 564 33,500 -2,940 Descending FlightAware UK
05:06AM 48.7839 -7.1374 116° Southeast 490 564 33,500 3,180 Level FlightAware UK
05:06AM 48.7650 -7.0570 116° Southeast 533 613 35,100  Climbing FlightAware
05:07AM 48.7515 -7.0363 116° Southeast 490 564 33,500 -2,700 Descending FlightAware UK
05:07AM 48.7320 -6.9757 116° Southeast 490 564 33,500 4,320 Level FlightAware UK
05:07AM 48.7200 -6.9190 116° Southeast 533 613 35,100  Climbing FlightAware
05:07AM 48.7059 -6.8951 116° Southeast 490 564 33,500 -2,580 Descending FlightAware UK
05:08AM 48.6861 -6.8339 116° Southeast 490 564 33,500 4,800 Level FlightAware UK
05:08AM 48.6770 -6.7860 116° Southeast 533 613 35,100  Climbing FlightAware
05:08AM 48.6666 -6.7734 116° Southeast 490 564 33,500 -2,880 Descending FlightAware UK
05:08AM 48.6470 -6.7129 116° Southeast 490 564 33,500 3,300 Level FlightAware UK
05:08AM 48.6280 -6.6340 116° Southeast 535 616 35,100  Climbing FlightAware
05:09AM 48.6141 -6.6121 116° Southeast 488 562 33,500 -2,640 Descending FlightAware UK
05:09AM 48.5942 -6.5517 116° Southeast 488 562 33,500 4,560 Level FlightAware UK
05:09AM 48.5850 -6.5020 116° Southeast 534 615 35,100  Climbing FlightAware
05:09AM 48.5744 -6.4913 116° Southeast 488 562 33,500 -2,940 Descending FlightAware UK
05:10AM 48.5544 -6.4309 116° Southeast 488 562 33,500 3,180 Level FlightAware UK
05:10AM 48.5380 -6.3600 116° Southeast 537 618 35,100  Climbing FlightAware
05:10AM 48.5212 -6.3301 116° Southeast 488 562 33,500 -2,700 Descending FlightAware UK
05:10AM 48.5013 -6.2696 116° Southeast 488 562 33,500 4,320 Level FlightAware UK
05:10AM 48.4900 -6.2190 116° Southeast 537 618 35,100  Climbing FlightAware
05:11AM 48.4744 -6.1889 116° Southeast 488 562 33,500 -2,580 Descending FlightAware UK
05:11AM 48.4542 -6.1284 117° Southeast 486 559 33,500 4,800 Level FlightAware UK
05:11AM 48.4480 -6.0900 117° Southeast 539 620 35,100  Climbing FlightAware
05:11AM 48.4339 -6.0678 117° Southeast 486 559 33,500 -2,880 Descending FlightAware UK
05:12AM 48.4137 -6.0072 117° Southeast 488 562 33,500 3,300 Level FlightAware UK
05:12AM 48.3950 -5.9340 117° Southeast 541 623 35,100  Climbing FlightAware
05:12AM 48.3798 -5.9061 117° Southeast 488 562 33,500 -2,640 Descending FlightAware UK
05:12AM 48.3594 -5.8453 117° Southeast 486 559 33,500 4,560 Level FlightAware UK
05:12AM 48.3500 -5.7990 117° Southeast 543 625 35,100  Climbing FlightAware
05:13AM 48.3390 -5.7839 117° Southeast 488 562 33,500 -2,940 Descending FlightAware UK
05:13AM 48.3185 -5.7233 117° Southeast 488 562 33,500 3,180 Level FlightAware UK
05:13AM 48.3000 -5.6520 117° Southeast 544 626 35,100  Climbing FlightAware
05:14AM 48.2842 -5.6222 117° Southeast 490 564 33,500 -2,700 Descending FlightAware UK
05:14AM 48.2634 -5.5613 117° Southeast 490 564 33,500 4,320 Level FlightAware UK
05:14AM 48.2520 -5.5140 117° Southeast 546 628 35,100  Climbing FlightAware
05:14AM 48.2357 -5.4800 117° Southeast 492 566 33,500 -2,580 Descending FlightAware UK
05:15AM 48.2149 -5.4191 117° Southeast 490 564 33,500 3,840 Level FlightAware UK
05:15AM 48.1990 -5.3600 117° Southeast 546 628 35,100 2,040 Climbing FlightAware
05:15AM 48.1530 -5.2260 117° Southeast 547 629 35,100  Level FlightAware
05:16AM 48.1070 -5.0930 117° Southeast 548 631 35,100  Level FlightAware
05:17AM 48.0540 -4.9430 118° Southeast 549 632 35,100  Level FlightAware
05:17AM 48.0070 -4.8090 118° Southeast 550 633 35,100  Level FlightAware
05:18AM 47.9530 -4.6560 118° Southeast 550 633 35,100  Level FlightAware
05:19AM 47.9050 -4.5200 118° Southeast 551 634 35,100  Level FlightAware
05:19AM 47.8560 -4.3850 118° Southeast 552 635 35,100  Level FlightAware
05:20AM 47.8040 -4.2390 118° Southeast 553 636 35,100  Level FlightAware
05:21AM 47.7550 -4.1050 119° Southeast 553 636 35,100  Level FlightAware
05:22AM 47.6990 -3.9510 118° Southeast 553 636 35,100  Level FlightAware
05:22AM 47.6510 -3.8190 118° Southeast 552 635 35,100  Level FlightAware
05:23AM 47.6020 -3.6840 118° Southeast 553 636 35,100  Level FlightAware
05:24AM 47.5490 -3.5410 119° Southeast 553 636 35,100  Level FlightAware
05:24AM 47.4990 -3.4060 119° Southeast 553 636 35,100  Level FlightAware
05:25AM 47.4420 -3.2550 119° Southeast 554 638 35,100  Level FlightAware
05:26AM 47.3930 -3.1240 119° Southeast 554 638 35,100  Level FlightAware
05:26AM 47.3430 -2.9900 119° Southeast 553 636 35,100  Level FlightAware
05:27AM 47.2870 -2.8450 120° Southeast 554 638 35,100  Level FlightAware
05:28AM 47.2390 -2.7170 119° Southeast 554 638 35,100  Level FlightAware
05:29AM 47.1800 -2.5630 119° Southeast 556 640 35,100  Level FlightAware
05:29AM 47.1290 -2.4310 120° Southeast 557 641 35,100  Level FlightAware
05:30AM 47.0780 -2.3000 120° Southeast 556 640 35,100  Level FlightAware
05:31AM 47.0210 -2.1540 120° Southeast 558 642 35,100  Level FlightAware
05:31AM 46.9770 -2.0410 120° Southeast 558 642 35,100  Level FlightAware
05:32AM 46.9120 -1.8760 120° Southeast 560 644 35,100  Level FlightAware
05:33AM 46.8600 -1.7430 120° Southeast 562 647 35,100  Level FlightAware
05:34AM 46.8030 -1.5980 120° Southeast 563 648 35,100  Level FlightAware
05:34AM 46.7500 -1.4660 120° Southeast 564 649 35,100  Level FlightAware
05:35AM 46.6970 -1.3350 121° Southeast 565 650 35,100  Level FlightAware
05:35AM 46.6570 -1.2360 120° Southeast 565 650 35,100  Level FlightAware
05:36AM 46.6060 -1.1100 120° Southeast 565 650 35,100  Level FlightAware
05:37AM 46.5450 -0.9570 120° Southeast 565 650 35,100  Level FlightAware
05:37AM 46.5010 -0.8510 121° Southeast 565 650 35,100  Level FlightAware
05:38AM 46.4640 -0.7590 120° Southeast 35,100  Level FlightAware
05:39AM 46.4100 -0.6250 120° Southeast 565 650 35,100  Level FlightAware
05:39AM 46.3700 -0.5140 118° Southeast 565 650 35,100  Level FlightAware
05:40AM 46.3180 -0.3630 116° Southeast 566 651 35,100  Level FlightAware
05:41AM 46.2720 -0.1980 112° Southeast 562 647 35,100  Level FlightAware
05:41AM 46.2260 -0.0700 117° Southeast 562 647 35,100  Level FlightAware
05:42AM 46.1790 0.0890 113° Southeast 562 647 35,100  Level FlightAware
05:43AM 46.1390 0.2310 112° Southeast 562 647 35,100  Level FlightAware
05:43AM 46.1000 0.3620 113° Southeast 562 647 35,100  Level FlightAware
05:44AM 46.0630 0.5250 108° East 563 648 35,100  Level FlightAware
05:45AM 46.0360 0.6670 105° East 563 648 35,100  Level FlightAware
05:46AM 46.0080 0.8180 105° East 563 648 35,100  Level FlightAware
05:46AM 45.9850 0.9410 105° East 563 648 35,100  Level FlightAware
05:47AM 45.9620 1.0640 105° East 563 648 35,100  Level FlightAware
05:48AM 45.9390 1.1870 105° East 563 648 35,100  Level FlightAware
05:48AM 45.8600 1.4220 116° Southeast 564 649 35,100  Level FlightAware
05:49AM 45.7950 1.6800 110° East 562 647 35,100  Level FlightAware
05:50AM 45.7530 1.8350 111° Southeast 564 649 35,100  Level FlightAware
05:51AM 45.7010 1.9650 120° Southeast 565 650 35,100  Level FlightAware
05:52AM 45.6430 2.1090 120° Southeast 566 651 35,100  Level FlightAware
05:52AM 45.5890 2.2430 120° Southeast 566 651 35,100  Level FlightAware
05:53AM 45.5310 2.3860 120° Southeast 567 652 35,100  Level FlightAware
05:54AM 45.4790 2.5140 120° Southeast 566 651 35,100  Level FlightAware
05:54AM 45.4270 2.6430 120° Southeast 565 650 35,100  Level FlightAware
05:55AM 45.3680 2.7850 121° Southeast 566 651 35,100  Level FlightAware
05:56AM 45.3310 2.8740 121° Southeast 565 650 35,100  Level FlightAware
05:56AM 45.2650 3.0400 119° Southeast 565 650 35,100  Level FlightAware
05:57AM 45.2150 3.1980 114° Southeast 564 649 35,100  Level FlightAware
05:58AM 45.1710 3.3480 113° Southeast 564 649 35,100  Level FlightAware
05:59AM 45.1320 3.4890 111° Southeast 564 649 35,100  Level FlightAware
05:59AM 45.0930 3.6260 112° Southeast 565 650 35,100  Level FlightAware
06:00AM 45.0510 3.7730 112° Southeast 566 651 35,100  Level FlightAware
06:01AM 45.0100 3.9160 112° Southeast 565 650 35,100  Level FlightAware
06:01AM 44.9720 4.0520 112° Southeast 566 651 35,100  Level FlightAware
06:02AM 44.9270 4.2110 112° Southeast 566 651 35,100  Level FlightAware
06:03AM 44.8880 4.3460 112° Southeast 565 650 35,100  Level FlightAware
06:04AM 44.8450 4.4960 112° Southeast 564 649 35,100  Level FlightAware
06:04AM 44.8050 4.6310 113° Southeast 562 647 35,100  Level FlightAware
06:05AM 44.7650 4.7670 112° Southeast 562 647 35,100  Level FlightAware
06:06AM 44.7190 4.9230 112° Southeast 562 647 35,100  Level FlightAware
06:06AM 44.6780 5.0590 113° Southeast 562 647 35,100  Level FlightAware
06:07AM 44.6340 5.2010 113° Southeast 564 649 35,100  Level FlightAware
06:08AM 44.5750 5.3270 123° Southeast 566 651 35,100  Level FlightAware
06:08AM 44.5070 5.4370 131° Southeast 565 650 35,100  Level FlightAware
06:09AM 44.4280 5.5630 131° Southeast 563 648 35,100  Level FlightAware
06:10AM 44.3600 5.6750 130° Southeast 564 649 35,100  Level FlightAware
06:10AM 44.3000 5.7940 125° Southeast 563 648 35,100  Level FlightAware
06:11AM 44.2330 5.9310 124° Southeast 561 646 35,100  Level FlightAware
06:12AM 44.1780 6.0440 124° Southeast 561 646 35,100  Level FlightAware
06:13AM 44.1110 6.1810 124° Southeast 559 643 35,100  Level FlightAware
06:13AM 44.0520 6.3010 124° Southeast 559 643 35,100  Level FlightAware
06:14AM 43.9940 6.4180 125° Southeast 558 642 35,100  Level FlightAware
06:15AM 43.9320 6.5430 125° Southeast 560 644 35,100  Level FlightAware
06:15AM 43.8610 6.6870 124° Southeast 559 643 35,100  Level FlightAware
06:16AM 43.8020 6.8030 125° Southeast 558 642 35,100  Level FlightAware
06:17AM 43.7510 6.9180 122° Southeast 558 642 35,100  Level FlightAware
06:18AM 43.6940 7.0490 121° Southeast 557 641 35,100  Level FlightAware
06:18AM 43.6380 7.1780 121° Southeast 557 641 35,100  Level FlightAware
06:19AM 43.5890 7.2910 121° Southeast 556 640 35,100  Level FlightAware
06:20AM 43.5230 7.4370 122° Southeast 557 641 35,100  Level FlightAware
06:20AM 43.4690 7.5560 122° Southeast 557 641 35,100  Level FlightAware
06:21AM 43.4050 7.6980 122° Southeast 558 642 35,100 480 Level FlightAware
06:22AM 43.3500 7.8180 122° Southeast 561 646 35,800 1,020 Climbing FlightAware
06:22AM 43.2910 7.9480 122° Southeast 559 643 36,600 900 Climbing FlightAware
06:23AM 43.2360 8.0690 122° Southeast 562 647 37,100 360 Climbing FlightAware
06:24AM 43.1790 8.1920 122° Southeast 561 646 37,100  Level FlightAware
06:25AM 43.1150 8.3310 122° Southeast 559 643 37,100  Level FlightAware
06:25AM 43.0600 8.4490 123° Southeast 558 642 37,100  Level FlightAware
06:26AM 43.0130 8.5490 123° Southeast 557 641 37,100  Level FlightAware
06:27AM 42.9440 8.6970 122° Southeast 553 636 37,100  Level FlightAware
06:27AM 42.8820 8.8290 123° Southeast 553 636 37,100  Level FlightAware
06:28AM 42.8360 8.9280 122° Southeast 553 636 37,100  Level FlightAware
06:29AM 42.7730 9.0590 123° Southeast 553 636 37,100  Level FlightAware
06:29AM 42.7110 9.1910 123° Southeast 552 635 37,100  Level FlightAware
06:30AM 42.6550 9.3070 123° Southeast 553 636 37,100  Level FlightAware
06:31AM 42.6030 9.4310 120° Southeast 553 636 37,100  Level FlightAware
06:32AM 42.5580 9.5770 113° Southeast 549 632 37,100  Level FlightAware
06:32AM 42.5220 9.7090 110° East 546 628 37,100  Level FlightAware
06:33AM 42.4820 9.8530 111° Southeast 542 624 37,100  Level FlightAware
06:34AM 42.4470 9.9780 111° Southeast 541 623 37,100  Level FlightAware
06:34AM 42.4100 10.1090 111° Southeast 539 620 37,100  Level FlightAware
06:35AM 42.3710 10.2470 111° Southeast 536 617 37,100  Level FlightAware
06:36AM 42.3220 10.4210 111° Southeast 534 615 37,100  Level FlightAware
06:37AM 42.2920 10.5270 111° Southeast 531 611 37,100  Level FlightAware
06:37AM 42.2510 10.6680 111° Southeast 523 602 37,100  Level FlightAware
06:38AM 42.2030 10.8340 111° Southeast 519 597 37,100  Level FlightAware
06:39AM 42.1640 10.9670 112° Southeast 519 597 37,100  Level FlightAware
06:40AM 42.0950 11.1240 121° Southeast 529 609 37,100  Level FlightAware
06:40AM 42.0400 11.2130 130° Southeast 528 608 37,100  Level FlightAware
06:41AM 41.9530 11.3510 130° Southeast 525 604 37,100  Level FlightAware
06:42AM 41.8950 11.4420 131° Southeast 522 601 37,100  Level FlightAware
06:43AM 41.7880 11.6100 130° Southeast 520 598 37,100  Level FlightAware
06:44AM 41.7330 11.6980 130° Southeast 519 597 37,100  Level FlightAware
06:45AM 41.6550 11.8190 131° Southeast 520 598 37,100  Level FlightAware
06:45AM 41.5760 11.9420 131° Southeast 520 598 37,100  Level FlightAware
06:46AM 41.4760 12.0970 131° Southeast 520 598 37,100  Level FlightAware
06:47AM 41.3890 12.2300 131° Southeast 519 597 37,100  Level FlightAware
06:48AM 41.3230 12.3320 131° Southeast 518 596 37,100  Level FlightAware
06:49AM 41.2410 12.4580 131° Southeast 515 593 37,100  Level FlightAware
06:50AM 41.1830 12.5460 131° Southeast 513 590 37,100  Level FlightAware
06:51AM 41.0880 12.6910 131° Southeast 513 590 37,100  Level FlightAware
06:52AM 41.0130 12.8030 132° Southeast 514 592 37,100  Level FlightAware
06:53AM 40.9270 12.9340 131° Southeast 514 592 37,100  Level FlightAware
06:53AM 40.8370 13.1100 124° Southeast 516 594 37,100  Level FlightAware
06:54AM 40.7990 13.1990 119° Southeast 516 594 37,100  Level FlightAware
06:55AM 40.7340 13.3460 120° Southeast 516 594 37,100  Level FlightAware
06:56AM 40.6850 13.4570 120° Southeast 516 594 37,100  Level FlightAware
06:56AM 40.6320 13.5770 120° Southeast 516 594 37,100  Level FlightAware
06:57AM 40.5830 13.6870 120° Southeast 517 595 37,100  Level FlightAware
06:58AM 40.5360 13.7930 120° Southeast 517 595 37,100  Level FlightAware
06:58AM 40.4790 13.9190 121° Southeast 517 595 37,100  Level FlightAware
06:59AM 40.4310 14.0260 120° Southeast 518 596 37,100  Level FlightAware
07:00AM 40.3820 14.1350 121° Southeast 518 596 37,100  Level FlightAware
07:00AM 40.3270 14.2550 121° Southeast 517 595 37,100  Level FlightAware
07:01AM 40.2780 14.3620 121° Southeast 518 596 37,100  Level FlightAware
07:02AM 40.2290 14.4690 121° Southeast 518 596 37,100  Level FlightAware
07:03AM 40.1740 14.5890 121° Southeast 518 596 37,100  Level FlightAware
07:03AM 40.1230 14.7000 121° Southeast 517 595 37,100  Level FlightAware
07:04AM 40.0690 14.8180 121° Southeast 515 593 37,100  Level FlightAware
07:05AM 40.0200 14.9240 121° Southeast 514 592 37,100  Level FlightAware
07:05AM 39.9630 15.0460 121° Southeast 514 592 37,100  Level FlightAware
07:06AM 39.9140 15.1520 121° Southeast 513 590 37,100  Level FlightAware
07:07AM 39.8650 15.2560 122° Southeast 513 590 37,100  Level FlightAware
07:07AM 39.8100 15.3720 122° Southeast 512 589 37,100  Level FlightAware
07:08AM 39.7620 15.4760 121° Southeast 511 588 37,100  Level FlightAware
07:09AM 39.7190 15.5880 116° Southeast 512 589 37,100  Level FlightAware
07:09AM 39.6800 15.6990 115° Southeast 509 586 37,100  Level FlightAware
07:10AM 39.6370 15.8250 114° Southeast 510 587 37,100  Level FlightAware
07:11AM 39.5950 15.9490 114° Southeast 507 583 37,100  Level FlightAware
07:12AM 39.5560 16.0620 114° Southeast 506 582 37,100  Level FlightAware
07:12AM 39.5180 16.1730 114° Southeast 505 581 37,100  Level FlightAware
07:13AM 39.4750 16.3000 114° Southeast 505 581 37,100  Level FlightAware
07:14AM 39.4370 16.4100 114° Southeast 508 585 37,100  Level FlightAware
07:14AM 39.3950 16.5310 114° Southeast 508 585 37,100  Level FlightAware
07:15AM 39.3570 16.6410 114° Southeast 509 586 37,100  Level FlightAware
07:16AM 39.3110 16.7710 115° Southeast 511 588 37,100  Level FlightAware
07:17AM 39.2730 16.8820 114° Southeast 512 589 37,100  Level FlightAware
07:17AM 39.2300 17.0030 115° Southeast 513 590 37,100  Level FlightAware
07:18AM 39.1930 17.1100 114° Southeast 512 589 37,100  Level FlightAware
07:19AM 39.1590 17.2060 115° Southeast 512 589 37,100  Level FlightAware
07:19AM 39.1180 17.3210 115° Southeast 512 589 37,100  Level FlightAware
07:20AM 39.0710 17.4510 115° Southeast 512 589 37,100  Level FlightAware
07:21AM 39.0390 17.5420 114° Southeast 512 589 37,100  Level FlightAware
07:21AM 38.9950 17.6670 114° Southeast 512 589 37,100  Level FlightAware
07:22AM 38.9470 17.7980 115° Southeast 510 587 37,100  Level FlightAware
07:23AM 38.9170 17.8830 114° Southeast 507 583 37,100  Level FlightAware
07:24AM 38.8680 18.0180 115° Southeast 506 582 37,100  Level FlightAware
07:24AM 38.8290 18.1250 115° Southeast 505 581 37,100  Level FlightAware
07:25AM 38.7830 18.2510 115° Southeast 504 580 37,100  Level FlightAware
07:26AM 38.7410 18.3640 115° Southeast 503 579 37,100  Level FlightAware
07:26AM 38.7130 18.4410 115° Southeast 503 579 37,100  Level FlightAware
07:27AM 38.6480 18.6170 115° Southeast 506 582 37,100  Level FlightAware
07:28AM 38.6000 18.7470 115° Southeast 505 581 37,100  Level FlightAware
07:29AM 38.5660 18.8370 116° Southeast 503 579 37,100  Level FlightAware
07:29AM 38.5260 18.9480 115° Southeast 504 580 37,100  Level FlightAware
07:30AM 38.4790 19.0930 112° Southeast 504 580 37,100  Level FlightAware
07:31AM 38.4490 19.1870 112° Southeast 504 580 37,100  Level FlightAware
07:31AM 38.4220 19.2950 108° East 502 578 37,100  Level FlightAware
07:32AM 38.3800 19.4350 111° Southeast 504 580 37,100  Level FlightAware
07:33AM 38.3480 19.5420 111° Southeast 505 581 37,100  Level FlightAware
07:34AM 38.3140 19.6520 111° Southeast 505 581 37,100  Level FlightAware
07:34AM 38.2740 19.7840 111° Southeast 506 582 37,100  Level FlightAware
07:35AM 38.2410 19.8910 111° Southeast 508 585 37,100  Level FlightAware
07:36AM 38.2060 20.0080 111° Southeast 508 585 37,100  Level FlightAware
07:37AM 38.1610 20.1520 112° Southeast 509 586 37,100  Level FlightAware
07:37AM 38.1260 20.2680 111° Southeast 509 586 37,100  Level FlightAware
07:38AM 38.0980 20.3630 111° Southeast 509 586 37,100  Level FlightAware
07:39AM 38.0690 20.4580 111° Southeast 509 586 37,100  Level FlightAware
07:39AM 38.0400 20.5530 111° Southeast 509 586 37,100  Level FlightAware
07:40AM 38.0040 20.6720 111° Southeast 509 586 37,100  Level FlightAware
07:41AM 37.9760 20.7670 110° East 509 586 37,100  Level FlightAware
07:41AM 37.9470 20.8620 111° Southeast 509 586 37,100  Level FlightAware
07:43AM 37.8250 21.2270 113° Southeast 510 587 37,100  Level FlightAware
07:44AM 37.7830 21.3570 112° Southeast 510 587 37,100  Level FlightAware
07:44AM 37.7420 21.4860 112° Southeast 510 587 37,100  Level FlightAware
07:45AM 37.7050 21.6010 112° Southeast 510 587 37,100  Level FlightAware
07:46AM 37.6510 21.7660 112° Southeast 510 587 37,100  Level FlightAware
07:47AM 37.6140 21.8800 112° Southeast 510 587 37,100  Level FlightAware
07:47AM 37.5840 21.9720 112° Southeast 510 587 37,100  Level FlightAware
07:48AM 37.5390 22.1090 112° Southeast 507 583 37,100  Level FlightAware
07:49AM 37.4940 22.2440 113° Southeast 507 583 37,100  Level FlightAware
07:50AM 37.4590 22.3500 113° Southeast 505 581 37,100  Level FlightAware
07:50AM 37.4240 22.4550 113° Southeast 503 579 37,100  Level FlightAware
07:51AM 37.3880 22.5630 113° Southeast 502 578 37,100  Level FlightAware
07:52AM 37.3480 22.6820 113° Southeast 502 578 37,100  Level FlightAware
07:53AM 37.3050 22.8110 113° Southeast 505 581 37,100  Level FlightAware
07:53AM 37.2690 22.9170 113° Southeast 507 583 37,100  Level FlightAware
07:54AM 37.2390 23.0040 113° Southeast 506 582 37,100  Level FlightAware
07:55AM 37.1930 23.1390 113° Southeast 506 582 37,100  Level FlightAware
07:55AM 37.1570 23.2440 113° Southeast 506 582 37,100  Level FlightAware
07:56AM 37.1040 23.3980 113° Southeast 507 583 37,100  Level FlightAware
07:57AM 37.0630 23.5190 113° Southeast 507 583 37,100  Level FlightAware
07:58AM 37.0300 23.6120 114° Southeast 513 590 37,100  Level FlightAware
07:58AM 36.9830 23.7480 113° Southeast 515 593 37,100  Level FlightAware
07:59AM 36.9420 23.8640 114° Southeast 516 594 37,100  Level FlightAware
08:00AM 36.9040 23.9730 114° Southeast 519 597 37,100 300 Level FlightAware
08:00AM 36.8610 24.0970 113° Southeast 523 602 37,600 900 Climbing FlightAware
08:01AM 36.8200 24.2110 114° Southeast 521 600 38,400 900 Climbing FlightAware
08:02AM 36.7760 24.3360 114° Southeast 523 602 38,900 480 Climbing FlightAware
08:03AM 36.7380 24.4420 114° Southeast 526 605 39,100 120 Climbing FlightAware
08:03AM 36.6970 24.5580 114° Southeast 526 605 39,100  Level FlightAware
08:04AM 36.6620 24.6550 114° Southeast 525 604 39,100  Level FlightAware
08:05AM 36.6130 24.7900 114° Southeast 521 600 39,100  Level FlightAware
08:05AM 36.5780 24.8880 114° Southeast 521 600 39,100  Level FlightAware
08:06AM 36.5330 25.0130 114° Southeast 516 594 39,100  Level FlightAware
08:07AM 36.4920 25.1260 114° Southeast 516 594 39,100  Level FlightAware
08:07AM 36.4510 25.2360 115° Southeast 512 589 39,100  Level FlightAware
08:08AM 36.4130 25.3410 114° Southeast 512 589 39,100  Level FlightAware
08:09AM 36.3810 25.4320 114° Southeast 512 589 39,100  Level FlightAware
08:09AM 36.3480 25.5240 114° Southeast 512 589 39,100  Level FlightAware
08:10AM 36.3150 25.6150 114° Southeast 512 589 39,100  Level FlightAware
08:11AM 36.2530 25.7720 116° Southeast 39,100  Level FlightAware
08:12AM 36.1820 25.9640 115° Southeast 39,100  Level FlightAware
08:13AM 36.1170 26.1370 115° Southeast 509 586 39,100  Level FlightAware
08:14AM 36.0830 26.2270 115° Southeast 509 586 39,100  Level FlightAware
08:15AM 36.0280 26.3720 115° Southeast 510 587 39,100  Level FlightAware
08:15AM 35.9760 26.5090 115° Southeast 510 587 39,100  Level FlightAware
08:16AM 35.9390 26.6050 115° Southeast 510 587 39,100  Level FlightAware
08:17AM 35.9040 26.6970 115° Southeast 510 587 39,100  Level FlightAware
08:17AM 35.8490 26.8410 115° Southeast 508 585 39,100  Level FlightAware
08:18AM 35.8160 26.9280 115° Southeast 508 585 39,100  Level FlightAware
08:19AM 35.7770 27.0260 116° Southeast 507 583 39,100  Level FlightAware
08:20AM 35.7260 27.1580 115° Southeast 507 583 39,100  Level FlightAware
08:20AM 35.6930 27.2450 115° Southeast 507 583 39,100  Level FlightAware
08:21AM 35.6510 27.3560 115° Southeast 507 583 39,100  Level FlightAware
08:22AM 35.6040 27.4710 117° Southeast 515 593 39,100  Level FlightAware
08:22AM 35.5590 27.5840 116° Southeast 515 593 39,100  Level FlightAware
08:23AM 35.5090 27.7110 116° Southeast 519 597 39,100  Level FlightAware
08:24AM 35.4680 27.8140 116° Southeast 522 601 39,100  Level FlightAware
08:24AM 35.4210 27.9340 116° Southeast 525 604 39,100  Level FlightAware
08:25AM 35.3780 28.0410 116° Southeast 526 605 39,100  Level FlightAware
08:26AM 35.3250 28.1740 116° Southeast 526 605 39,100  Level FlightAware
08:27AM 35.2820 28.2810 116° Southeast 526 605 39,100  Level FlightAware
08:27AM 35.2390 28.3880 116° Southeast 527 606 39,100  Level FlightAware
08:28AM 35.1900 28.5080 117° Southeast 529 609 39,100  Level FlightAware
08:29AM 35.1410 28.6280 117° Southeast 532 612 39,100  Level FlightAware
08:29AM 35.1020 28.7240 116° Southeast 533 613 39,100  Level FlightAware
08:30AM 35.0360 28.8870 116° Southeast 533 613 39,100  Level FlightAware
08:31AM 34.9880 29.0030 117° Southeast 534 615 39,100  Level FlightAware
08:32AM 34.9430 29.1130 116° Southeast 536 617 39,100  Level FlightAware
08:33AM 34.8870 29.2500 116° Southeast 537 618 39,100  Level FlightAware
08:33AM 34.8320 29.3800 117° Southeast 536 617 39,100  Level FlightAware
08:34AM 34.8140 29.4230 117° Southeast 535 616 39,100  Level FlightAware
08:35AM 34.7540 29.5670 117° Southeast 535 616 39,100  Level FlightAware
08:35AM 34.7100 29.6740 117° Southeast 537 618 39,100  Level FlightAware
08:36AM 34.6650 29.7800 117° Southeast 537 618 39,100  Level FlightAware
08:37AM 34.6140 29.9020 117° Southeast 537 618 39,100  Level FlightAware
08:37AM 34.5680 30.0110 117° Southeast 538 619 39,100  Level FlightAware
08:38AM 34.5120 30.1310 119° Southeast 534 615 39,100  Level FlightAware
08:39AM 34.4650 30.2270 121° Southeast 541 623 39,100  Level FlightAware
08:39AM 34.4050 30.3500 121° Southeast 545 627 39,100  Level FlightAware
08:40AM 34.3540 30.4570 120° Southeast 548 631 39,100  Level FlightAware
08:41AM 34.2960 30.5790 120° Southeast 552 635 39,100  Level FlightAware
08:42AM 34.2440 30.6870 120° Southeast 553 636 39,100  Level FlightAware
08:42AM 34.1920 30.7970 120° Southeast 554 638 39,100  Level FlightAware
08:43AM 34.1340 30.9160 120° Southeast 552 635 39,100  Level FlightAware
08:44AM 34.0820 31.0240 120° Southeast 553 636 39,100  Level FlightAware
08:44AM 34.0410 31.1090 120° Southeast 554 638 39,100  Level FlightAware
08:45AM 33.9750 31.2420 121° Southeast 555 639 39,100  Level FlightAware
08:46AM 33.9150 31.3650 120° Southeast 557 641 39,100  Level FlightAware
08:46AM 33.8610 31.4750 121° Southeast 558 642 39,100  Level FlightAware
08:47AM 33.8090 31.5800 121° Southeast 557 641 39,100  Level FlightAware
08:48AM 33.7490 31.7030 120° Southeast 557 641 39,100  Level FlightAware
08:49AM 33.6970 31.8080 121° Southeast 561 646 39,100  Level FlightAware
08:49AM 33.6340 31.9340 121° Southeast 561 646 39,100  Level FlightAware
08:50AM 33.5810 32.0410 121° Southeast 561 646 39,100  Level FlightAware
08:51AM 33.5280 32.1470 121° Southeast 561 646 39,100  Level FlightAware
08:51AM 33.4670 32.2690 121° Southeast 562 647 39,100  Level FlightAware
08:52AM 33.4150 32.3730 121° Southeast 562 647 39,100 -300 Level FlightAware
08:53AM 33.3550 32.4920 121° Southeast 567 652 38,700 -1,440 Descending FlightAware
08:53AM 33.2990 32.6010 122° Southeast 558 642 37,100 -2,340 Descending FlightAware
08:54AM 33.2480 32.7020 121° Southeast 538 619 35,600 -2,220 Descending FlightAware
08:55AM 33.1890 32.8170 121° Southeast 531 611 34,000 -2,160 Descending FlightAware
08:56AM 33.1410 32.9130 121° Southeast 525 604 32,600 -2,220 Descending FlightAware
08:56AM 33.0890 33.0140 122° Southeast 511 588 31,100 -2,100 Descending FlightAware
08:57AM 33.0410 33.1070 122° Southeast 501 577 29,800 -2,040 Descending FlightAware
08:58AM 32.9950 33.1970 121° Southeast 491 565 28,400 -2,160 Descending FlightAware
08:58AM 32.9310 33.3200 122° Southeast 468 539 26,600 -2,220 Descending FlightAware
08:59AM 32.8870 33.4070 121° Southeast 454 522 25,100 -2,100 Descending FlightAware
09:00AM 32.8430 33.4900 122° Southeast 439 505 23,800 -2,100 Descending FlightAware
09:00AM 32.7970 33.5800 121° Southeast 426 490 22,200 -2,160 Descending FlightAware
09:01AM 32.7560 33.6580 122° Southeast 415 478 20,800 -2,220 Descending FlightAware
09:02AM 32.7100 33.7470 122° Southeast 406 467 19,100 -2,160 Descending FlightAware
09:03AM 32.6710 33.8220 122° Southeast 398 458 17,800 -2,040 Descending FlightAware
09:03AM 32.6320 33.8950 122° Southeast 387 445 16,400 -1,920 Descending FlightAware
09:04AM 32.5930 33.9710 121° Southeast 375 432 15,100 -1,800 Descending FlightAware
09:05AM 32.5550 34.0420 122° Southeast 363 418 13,900 -1,920 Descending FlightAware
09:05AM 32.5150 34.1180 122° Southeast 354 407 12,400 -1,860 Descending FlightAware
09:06AM 32.4800 34.1830 123° Southeast 345 397 11,300 -1,740 Descending FlightAware
09:07AM 32.4370 34.2400 132° Southeast 337 388 10,100 -1,800 Descending FlightAware
09:07AM 32.4120 34.2710 134° Southeast 333 383 9,400 -840 Descending FlightAware
09:08AM 32.3780 34.3110 135° Southeast 333 383 9,300 -120 Descending FlightAware
09:08AM 32.3590 34.3330 136° Southeast 333 383 9,300  Level FlightAware
09:08AM 32.3410 34.3550 134° Southeast 333 383 9,300  Level FlightAware
09:09AM 32.3130 34.3880 135° Southeast 333 383 9,300  Level FlightAware
09:11AM 32.1585 34.5865 126° Southeast  Level FlightAware Approximate
09:12AM 32.0758 34.7188 115° Southeast  Level FlightAware Approximate
09:13AM 32.0040 34.8601 125° Southeast  Level FlightAware Approximate
09:14AM 32.0000 34.8667 125° Southeast  Level FlightAware Approximate
09:15AM 32.0095 34.8769 125° Southeast  Level Estimated
09:16AM 32.0095 34.8769 125° Southeast  Level Estimated
09:17AM 32.0095 34.8769 125° Southeast  Level Estimated
09:18AM 32.0095 34.8769 125° Southeast  Level Estimated
09:19AM 32.0095 34.8769 125° Southeast  Level Estimated
09:20AM 32.0095 34.8769 125° Southeast  Level Estimated
09:21AM 32.0095 34.8769 125° Southeast  Level Estimated
09:22AM 32.0095 34.8769 125° Southeast  Level Estimated